sensor_id;sensor_type;location;lat;lon;timestamp;pressure;altitude;pressure_sealevel;temperature;humidity
75013;BME280;63567;49.956;20.130;2022-10-31T00:01:35;97470.75;;;13.26;76.88
75013;BME280;63567;49.956;20.130;2022-10-31T00:04:02;97478.88;;;13.25;76.92
75013;BME280;63567;49.956;20.130;2022-10-31T00:06:27;97469.75;;;13.27;76.71
75013;BME280;63567;49.956;20.130;2022-10-31T00:08:55;97481.00;;;13.29;76.85
75013;BME280;63567;49.956;20.130;2022-10-31T00:11:21;97481.34;;;13.26;76.55
75013;BME280;63567;49.956;20.130;2022-10-31T00:13:47;97481.16;;;13.28;76.73
75013;BME280;63567;49.956;20.130;2022-10-31T00:16:16;97474.41;;;13.25;76.82
75013;BME280;63567;49.956;20.130;2022-10-31T00:18:42;97477.88;;;13.26;76.70
75013;BME280;63567;49.956;20.130;2022-10-31T00:21:07;97470.94;;;13.25;76.53
75013;BME280;63567;49.956;20.130;2022-10-31T00:23:32;97476.59;;;13.15;77.06
75013;BME280;63567;49.956;20.130;2022-10-31T00:26:02;97474.94;;;13.14;77.15
75013;BME280;63567;49.956;20.130;2022-10-31T00:28:28;97472.25;;;13.07;77.72
75013;BME280;63567;49.956;20.130;2022-10-31T00:30:58;97475.56;;;13.16;77.44
75013;BME280;63567;49.956;20.130;2022-10-31T00:33:23;97473.31;;;13.13;77.27
75013;BME280;63567;49.956;20.130;2022-10-31T00:35:50;97475.00;;;13.21;77.09
75013;BME280;63567;49.956;20.130;2022-10-31T00:38:15;97475.22;;;13.26;76.47
75013;BME280;63567;49.956;20.130;2022-10-31T00:40:41;97477.69;;;13.27;76.06
75013;BME280;63567;49.956;20.130;2022-10-31T00:43:06;97479.38;;;13.35;75.17
75013;BME280;63567;49.956;20.130;2022-10-31T00:45:31;97480.81;;;13.38;75.11
75013;BME280;63567;49.956;20.130;2022-10-31T00:47:57;97483.72;;;13.43;75.02
75013;BME280;63567;49.956;20.130;2022-10-31T00:50:22;97476.59;;;13.43;74.43
75013;BME280;63567;49.956;20.130;2022-10-31T00:52:47;97479.41;;;13.42;74.06
75013;BME280;63567;49.956;20.130;2022-10-31T00:55:12;97475.56;;;13.44;74.24
75013;BME280;63567;49.956;20.130;2022-10-31T00:57:38;97476.19;;;13.46;74.21
75013;BME280;63567;49.956;20.130;2022-10-31T01:03:28;97478.19;;;13.44;73.75
75013;BME280;63567;49.956;20.130;2022-10-31T01:06:05;97480.50;;;13.54;73.21
75013;BME280;63567;49.956;20.130;2022-10-31T01:08:31;97477.25;;;13.52;73.42
75013;BME280;63567;49.956;20.130;2022-10-31T01:11:10;97476.66;;;13.56;73.56
75013;BME280;63567;49.956;20.130;2022-10-31T01:13:36;97474.59;;;13.52;73.65
75013;BME280;63567;49.956;20.130;2022-10-31T01:16:03;97479.47;;;13.55;73.42
75013;BME280;63567;49.956;20.130;2022-10-31T01:18:28;97476.66;;;13.56;73.39
75013;BME280;63567;49.956;20.130;2022-10-31T01:21:21;97476.66;;;13.56;72.83
75013;BME280;63567;49.956;20.130;2022-10-31T01:23:47;97478.00;;;13.46;72.96
75013;BME280;63567;49.956;20.130;2022-10-31T01:26:15;97480.84;;;13.44;72.86
75013;BME280;63567;49.956;20.130;2022-10-31T01:28:47;97473.16;;;13.49;72.52
75013;BME280;63567;49.956;20.130;2022-10-31T01:31:12;97468.88;;;13.48;72.32
75013;BME280;63567;49.956;20.130;2022-10-31T01:33:38;97469.69;;;13.49;72.24
75013;BME280;63567;49.956;20.130;2022-10-31T01:38:48;97466.63;;;13.45;72.56
75013;BME280;63567;49.956;20.130;2022-10-31T01:41:16;97460.47;;;13.38;72.83
75013;BME280;63567;49.956;20.130;2022-10-31T01:49:13;97456.97;;;13.31;73.61
75013;BME280;63567;49.956;20.130;2022-10-31T01:51:43;97450.78;;;13.24;74.13
75013;BME280;63567;49.956;20.130;2022-10-31T01:54:12;97455.66;;;13.20;74.43
75013;BME280;63567;49.956;20.130;2022-10-31T01:56:42;97453.00;;;13.20;74.00
75013;BME280;63567;49.956;20.130;2022-10-31T01:59:12;97456.41;;;13.14;74.04
75013;BME280;63567;49.956;20.130;2022-10-31T02:01:41;97455.38;;;13.08;73.93
75013;BME280;63567;49.956;20.130;2022-10-31T02:04:06;97454.75;;;13.06;74.16
75013;BME280;63567;49.956;20.130;2022-10-31T02:06:38;97453.53;;;13.09;73.59
75013;BME280;63567;49.956;20.130;2022-10-31T02:09:06;97452.28;;;13.05;73.71
75013;BME280;63567;49.956;20.130;2022-10-31T02:11:32;97456.16;;;13.02;73.76
75013;BME280;63567;49.956;20.130;2022-10-31T02:14:01;97448.22;;;13.02;73.67
75013;BME280;63567;49.956;20.130;2022-10-31T02:16:26;97461.00;;;12.99;73.62
75013;BME280;63567;49.956;20.130;2022-10-31T02:18:52;97452.28;;;13.05;73.07
75013;BME280;63567;49.956;20.130;2022-10-31T02:21:54;97464.34;;;13.14;72.51
75013;BME280;63567;49.956;20.130;2022-10-31T02:24:43;97458.03;;;13.08;72.57
75013;BME280;63567;49.956;20.130;2022-10-31T02:27:16;97460.22;;;13.05;72.36
75013;BME280;63567;49.956;20.130;2022-10-31T02:29:54;97464.56;;;13.12;71.88
75013;BME280;63567;49.956;20.130;2022-10-31T02:32:42;97458.88;;;13.15;71.63
75013;BME280;63567;49.956;20.130;2022-10-31T02:35:26;97466.22;;;13.20;71.08
75013;BME280;63567;49.956;20.130;2022-10-31T02:40:52;97465.72;;;13.31;70.31
75013;BME280;63567;49.956;20.130;2022-10-31T02:45:50;97470.81;;;13.33;69.85
75013;BME280;63567;49.956;20.130;2022-10-31T02:48:22;97467.75;;;13.29;69.78
75013;BME280;63567;49.956;20.130;2022-10-31T02:50:53;97476.28;;;13.31;70.18
75013;BME280;63567;49.956;20.130;2022-10-31T02:53:20;97470.41;;;13.29;70.15
75013;BME280;63567;49.956;20.130;2022-10-31T02:55:54;97474.78;;;13.22;70.84
75013;BME280;63567;49.956;20.130;2022-10-31T02:58:22;97473.28;;;13.06;71.47
75013;BME280;63567;49.956;20.130;2022-10-31T03:06:37;97479.63;;;12.84;72.70
75013;BME280;63567;49.956;20.130;2022-10-31T03:11:49;97479.94;;;12.74;73.07
75013;BME280;63567;49.956;20.130;2022-10-31T03:14:22;97479.69;;;12.69;73.28
75013;BME280;63567;49.956;20.130;2022-10-31T03:16:52;97481.91;;;12.65;73.73
75013;BME280;63567;49.956;20.130;2022-10-31T03:19:27;97479.69;;;12.69;73.50
75013;BME280;63567;49.956;20.130;2022-10-31T03:22:00;97487.81;;;12.67;73.60
75013;BME280;63567;49.956;20.130;2022-10-31T03:24:31;97478.63;;;12.63;73.54
75013;BME280;63567;49.956;20.130;2022-10-31T03:26:58;97477.19;;;12.61;73.77
75013;BME280;63567;49.956;20.130;2022-10-31T03:29:28;97480.47;;;12.63;73.50
75013;BME280;63567;49.956;20.130;2022-10-31T03:32:08;97481.28;;;12.63;73.74
75013;BME280;63567;49.956;20.130;2022-10-31T03:34:37;97480.19;;;12.58;73.85
75013;BME280;63567;49.956;20.130;2022-10-31T03:37:06;97482.41;;;12.54;74.16
75013;BME280;63567;49.956;20.130;2022-10-31T03:39:33;97490.53;;;12.52;74.31
75013;BME280;63567;49.956;20.130;2022-10-31T03:42:07;97487.31;;;12.57;74.23
75013;BME280;63567;49.956;20.130;2022-10-31T03:44:34;97493.97;;;12.53;74.07
75013;BME280;63567;49.956;20.130;2022-10-31T03:47:02;97493.34;;;12.51;74.32
75013;BME280;63567;49.956;20.130;2022-10-31T03:49:29;97490.47;;;12.46;74.22
75013;BME280;63567;49.956;20.130;2022-10-31T03:51:59;97487.25;;;12.50;73.90
75013;BME280;63567;49.956;20.130;2022-10-31T03:54:42;97495.19;;;12.50;74.09
75013;BME280;63567;49.956;20.130;2022-10-31T03:57:35;97491.72;;;12.50;73.93
75013;BME280;63567;49.956;20.130;2022-10-31T04:00:06;97493.09;;;12.46;74.24
75013;BME280;63567;49.956;20.130;2022-10-31T04:02:34;97500.47;;;12.50;74.01
75013;BME280;63567;49.956;20.130;2022-10-31T04:05:04;97497.47;;;12.53;73.80
75013;BME280;63567;49.956;20.130;2022-10-31T04:07:34;97490.53;;;12.52;73.92
75013;BME280;63567;49.956;20.130;2022-10-31T04:10:04;97497.63;;;12.52;73.58
75013;BME280;63567;49.956;20.130;2022-10-31T04:12:34;97492.09;;;12.47;73.98
75013;BME280;63567;49.956;20.130;2022-10-31T04:15:02;97489.38;;;12.40;74.10
75013;BME280;63567;49.956;20.130;2022-10-31T04:17:31;97487.56;;;12.41;74.10
75013;BME280;63567;49.956;20.130;2022-10-31T04:19:59;97488.50;;;12.33;74.45
75013;BME280;63567;49.956;20.130;2022-10-31T04:22:25;97483.84;;;12.35;74.27
75013;BME280;63567;49.956;20.130;2022-10-31T04:24:50;97487.44;;;12.27;74.27
75013;BME280;63567;49.956;20.130;2022-10-31T04:27:15;97483.53;;;12.23;74.43
75013;BME280;63567;49.956;20.130;2022-10-31T04:29:41;97487.56;;;12.19;74.60
75013;BME280;63567;49.956;20.130;2022-10-31T04:32:06;97484.91;;;12.19;74.71
75013;BME280;63567;49.956;20.130;2022-10-31T04:34:31;97487.75;;;12.18;74.57
75013;BME280;63567;49.956;20.130;2022-10-31T04:36:56;97487.81;;;12.24;74.20
75013;BME280;63567;49.956;20.130;2022-10-31T04:39:22;97479.63;;;12.19;74.54
75013;BME280;63567;49.956;20.130;2022-10-31T04:41:47;97487.81;;;12.24;74.10
75013;BME280;63567;49.956;20.130;2022-10-31T04:44:12;97493.09;;;12.24;74.70
75013;BME280;63567;49.956;20.130;2022-10-31T04:46:37;97497.38;;;12.25;74.03
75013;BME280;63567;49.956;20.130;2022-10-31T04:49:03;97498.19;;;12.26;73.55
75013;BME280;63567;49.956;20.130;2022-10-31T04:51:28;97495.56;;;12.26;73.46
75013;BME280;63567;49.956;20.130;2022-10-31T04:53:53;97496.81;;;12.30;73.54
75013;BME280;63567;49.956;20.130;2022-10-31T04:56:18;97494.41;;;12.35;72.33
75013;BME280;63567;49.956;20.130;2022-10-31T04:58:44;97498.56;;;12.44;72.17
75013;BME280;63567;49.956;20.130;2022-10-31T05:01:09;97500.84;;;12.47;71.97
75013;BME280;63567;49.956;20.130;2022-10-31T05:03:34;97492.09;;;12.47;71.89
75013;BME280;63567;49.956;20.130;2022-10-31T05:06:00;97498.97;;;12.41;71.98
75013;BME280;63567;49.956;20.130;2022-10-31T05:08:25;97500.59;;;12.42;72.00
75013;BME280;63567;49.956;20.130;2022-10-31T05:10:50;97502.41;;;12.42;71.83
75013;BME280;63567;49.956;20.130;2022-10-31T05:13:16;97497.38;;;12.47;71.18
75013;BME280;63567;49.956;20.130;2022-10-31T05:15:42;97506.19;;;12.54;70.75
75013;BME280;63567;49.956;20.130;2022-10-31T05:18:07;97500.53;;;12.57;70.64
75013;BME280;63567;49.956;20.130;2022-10-31T05:20:32;97500.34;;;12.59;70.39
75013;BME280;63567;49.956;20.130;2022-10-31T05:22:59;97506.03;;;12.56;70.62
75013;BME280;63567;49.956;20.130;2022-10-31T05:25:26;97501.53;;;12.56;70.65
75013;BME280;63567;49.956;20.130;2022-10-31T05:27:54;97512.75;;;12.58;70.02
75013;BME280;63567;49.956;20.130;2022-10-31T05:30:22;97507.94;;;12.68;69.80
75013;BME280;63567;49.956;20.130;2022-10-31T05:32:49;97518.97;;;12.72;69.05
75013;BME280;63567;49.956;20.130;2022-10-31T05:35:17;97522.34;;;12.87;68.19
75013;BME280;63567;49.956;20.130;2022-10-31T05:37:42;97515.66;;;12.91;67.86
75013;BME280;63567;49.956;20.130;2022-10-31T05:40:11;97524.28;;;13.00;67.29
75013;BME280;63567;49.956;20.130;2022-10-31T05:42:38;97526.00;;;13.08;67.40
75013;BME280;63567;49.956;20.130;2022-10-31T05:45:04;97531.28;;;13.08;67.28
75013;BME280;63567;49.956;20.130;2022-10-31T05:47:29;97527.25;;;13.12;66.54
75013;BME280;63567;49.956;20.130;2022-10-31T05:49:54;97532.19;;;13.22;66.39
75013;BME280;63567;49.956;20.130;2022-10-31T05:52:20;97535.91;;;13.27;66.19
75013;BME280;63567;49.956;20.130;2022-10-31T05:54:45;97539.28;;;13.43;65.46
75013;BME280;63567;49.956;20.130;2022-10-31T05:57:10;97537.50;;;13.50;65.20
75013;BME280;63567;49.956;20.130;2022-10-31T05:59:35;97546.69;;;13.54;64.70
75013;BME280;63567;49.956;20.130;2022-10-31T06:02:01;97547.72;;;13.60;64.35
75013;BME280;63567;49.956;20.130;2022-10-31T06:04:26;97547.78;;;13.66;64.08
75013;BME280;63567;49.956;20.130;2022-10-31T06:06:51;97548.38;;;13.68;64.24
75013;BME280;63567;49.956;20.130;2022-10-31T06:09:17;97557.00;;;13.77;63.60
75013;BME280;63567;49.956;20.130;2022-10-31T06:11:42;97563.81;;;13.93;63.76
75013;BME280;63567;49.956;20.130;2022-10-31T06:14:07;97555.22;;;13.84;64.42
75013;BME280;63567;49.956;20.130;2022-10-31T06:16:32;97554.97;;;13.79;64.51
75013;BME280;63567;49.956;20.130;2022-10-31T06:18:58;97559.66;;;13.77;64.80
75013;BME280;63567;49.956;20.130;2022-10-31T06:21:23;97561.84;;;13.67;65.42
75013;BME280;63567;49.956;20.130;2022-10-31T06:23:49;97563.41;;;13.61;66.28
75013;BME280;63567;49.956;20.130;2022-10-31T06:26:14;97576.03;;;13.59;66.45
75013;BME280;63567;49.956;20.130;2022-10-31T06:28:40;97568.91;;;13.60;66.31
75013;BME280;63567;49.956;20.130;2022-10-31T06:31:05;97573.19;;;13.61;66.28
75013;BME280;63567;49.956;20.130;2022-10-31T06:33:31;97570.59;;;13.67;66.20
75013;BME280;63567;49.956;20.130;2022-10-31T06:35:56;97580.63;;;13.79;65.58
75013;BME280;63567;49.956;20.130;2022-10-31T06:38:21;97582.06;;;13.81;64.98
75013;BME280;63567;49.956;20.130;2022-10-31T06:40:47;97579.50;;;13.94;64.01
75013;BME280;63567;49.956;20.130;2022-10-31T06:43:12;97576.50;;;14.04;63.82
75013;BME280;63567;49.956;20.130;2022-10-31T06:45:39;97583.72;;;14.24;62.34
75013;BME280;63567;49.956;20.130;2022-10-31T06:48:04;97580.53;;;14.48;62.07
75013;BME280;63567;49.956;20.130;2022-10-31T06:50:30;97572.88;;;14.67;61.19
75013;BME280;63567;49.956;20.130;2022-10-31T06:52:57;97574.94;;;14.85;60.53
75013;BME280;63567;49.956;20.130;2022-10-31T06:55:23;97571.69;;;14.96;59.96
75013;BME280;63567;49.956;20.130;2022-10-31T06:57:53;97577.03;;;15.16;59.66
75013;BME280;63567;49.956;20.130;2022-10-31T07:00:19;97571.91;;;15.28;58.74
75013;BME280;63567;49.956;20.130;2022-10-31T07:02:53;97577.19;;;15.41;58.65
75013;BME280;63567;49.956;20.130;2022-10-31T07:05:18;97584.75;;;15.51;58.50
75013;BME280;63567;49.956;20.130;2022-10-31T07:07:44;97582.91;;;15.71;58.03
75013;BME280;63567;49.956;20.130;2022-10-31T07:10:09;97582.06;;;15.84;57.45
75013;BME280;63567;49.956;20.130;2022-10-31T07:12:34;97589.22;;;15.90;56.59
75013;BME280;63567;49.956;20.130;2022-10-31T07:15:00;97598.63;;;15.86;56.74
75013;BME280;63567;49.956;20.130;2022-10-31T07:17:25;97585.13;;;15.94;57.23
75013;BME280;63567;49.956;20.130;2022-10-31T07:19:50;97587.34;;;15.97;56.81
75013;BME280;63567;49.956;20.130;2022-10-31T07:22:15;97591.66;;;15.98;57.06
75013;BME280;63567;49.956;20.130;2022-10-31T07:24:41;97594.28;;;16.05;57.04
75013;BME280;63567;49.956;20.130;2022-10-31T07:27:06;97589.75;;;16.12;57.17
75013;BME280;63567;49.956;20.130;2022-10-31T07:29:31;97594.25;;;16.18;57.51
75013;BME280;63567;49.956;20.130;2022-10-31T07:31:56;97594.25;;;16.18;57.56
75013;BME280;63567;49.956;20.130;2022-10-31T07:34:22;97597.75;;;16.12;56.25
75013;BME280;63567;49.956;20.130;2022-10-31T07:36:47;97600.94;;;16.34;56.44
75013;BME280;63567;49.956;20.130;2022-10-31T07:39:12;97592.69;;;16.49;56.44
75013;BME280;63567;49.956;20.130;2022-10-31T07:41:37;97596.28;;;16.68;55.28
75013;BME280;63567;49.956;20.130;2022-10-31T07:44:03;97593.97;;;16.85;55.69
75013;BME280;63567;49.956;20.130;2022-10-31T07:46:28;97592.63;;;17.01;55.17
75013;BME280;63567;49.956;20.130;2022-10-31T07:48:54;97592.06;;;17.17;54.99
75013;BME280;63567;49.956;20.130;2022-10-31T07:51:19;97594.88;;;17.29;53.85
75013;BME280;63567;49.956;20.130;2022-10-31T07:53:44;97589.25;;;17.12;54.35
75013;BME280;63567;49.956;20.130;2022-10-31T07:56:09;97601.50;;;17.45;53.43
75013;BME280;63567;49.956;20.130;2022-10-31T07:58:35;97602.09;;;17.72;53.09
75013;BME280;63567;49.956;20.130;2022-10-31T08:01:00;97605.50;;;17.79;53.21
75013;BME280;63567;49.956;20.130;2022-10-31T08:03:25;97604.22;;;18.07;51.37
75013;BME280;63567;49.956;20.130;2022-10-31T08:05:51;97605.91;;;18.20;52.51
75013;BME280;63567;49.956;20.130;2022-10-31T08:08:16;97605.91;;;18.38;50.49
75013;BME280;63567;49.956;20.130;2022-10-31T08:10:42;97606.94;;;18.86;49.36
75013;BME280;63567;49.956;20.130;2022-10-31T08:13:12;97608.47;;;19.24;48.31
75013;BME280;63567;49.956;20.130;2022-10-31T08:15:38;97609.38;;;19.18;48.90
75013;BME280;63567;49.956;20.130;2022-10-31T08:18:06;97610.19;;;19.18;49.78
75013;BME280;63567;49.956;20.130;2022-10-31T08:20:35;97615.44;;;19.37;49.49
75013;BME280;63567;49.956;20.130;2022-10-31T08:23:03;97617.44;;;19.41;48.15
75013;BME280;63567;49.956;20.130;2022-10-31T08:25:30;97615.22;;;19.62;47.99
75013;BME280;63567;49.956;20.130;2022-10-31T08:27:56;97612.13;;;19.77;47.27
75013;BME280;63567;49.956;20.130;2022-10-31T08:30:25;97612.47;;;20.04;46.21
75013;BME280;63567;49.956;20.130;2022-10-31T08:33:04;97607.91;;;20.68;45.53
75013;BME280;63567;49.956;20.130;2022-10-31T08:35:31;97614.19;;;21.20;44.63
75013;BME280;63567;49.956;20.130;2022-10-31T08:37:57;97615.22;;;21.47;40.68
75013;BME280;63567;49.956;20.130;2022-10-31T08:40:24;97611.34;;;22.33;39.78
75013;BME280;63567;49.956;20.130;2022-10-31T08:42:57;97618.06;;;23.34;36.43
75013;BME280;63567;49.956;20.130;2022-10-31T08:45:23;97606.28;;;24.20;34.80
75013;BME280;63567;49.956;20.130;2022-10-31T08:47:49;97607.28;;;24.04;34.42
75013;BME280;63567;49.956;20.130;2022-10-31T08:50:14;97606.28;;;24.93;33.59
75013;BME280;63567;49.956;20.130;2022-10-31T08:52:39;97606.09;;;25.41;31.70
75013;BME280;63567;49.956;20.130;2022-10-31T08:55:05;97607.97;;;25.66;31.20
75013;BME280;63567;49.956;20.130;2022-10-31T08:57:30;97609.25;;;26.15;30.22
75013;BME280;63567;49.956;20.130;2022-10-31T08:59:56;97614.38;;;26.81;29.79
75013;BME280;63567;49.956;20.130;2022-10-31T09:02:21;97611.41;;;27.28;28.92
75013;BME280;63567;49.956;20.130;2022-10-31T09:04:46;97618.66;;;26.93;28.55
75013;BME280;63567;49.956;20.130;2022-10-31T09:07:11;97621.88;;;26.30;28.84
75013;BME280;63567;49.956;20.130;2022-10-31T09:09:37;97626.31;;;26.75;28.84
75013;BME280;63567;49.956;20.130;2022-10-31T09:12:02;97619.56;;;27.22;28.51
75013;BME280;63567;49.956;20.130;2022-10-31T09:14:27;97621.44;;;27.61;27.59
75013;BME280;63567;49.956;20.130;2022-10-31T09:16:53;97616.63;;;27.53;28.01
75013;BME280;63567;49.956;20.130;2022-10-31T09:19:18;97608.16;;;28.18;26.45
75013;BME280;63567;49.956;20.130;2022-10-31T09:21:43;97610.25;;;28.88;25.69
75013;BME280;63567;49.956;20.130;2022-10-31T09:24:09;97607.53;;;28.02;26.45
75013;BME280;63567;49.956;20.130;2022-10-31T09:26:34;97609.63;;;28.30;26.27
75013;BME280;63567;49.956;20.130;2022-10-31T09:28:59;97610.75;;;28.53;25.61
75013;BME280;63567;49.956;20.130;2022-10-31T09:31:27;97616.50;;;29.08;25.36
75013;BME280;63567;49.956;20.130;2022-10-31T10:03:26;97633.53;;;30.81;24.05
75013;BME280;63567;49.956;20.130;2022-10-31T10:22:12;97636.66;;;32.64;20.01
75013;BME280;63567;49.956;20.130;2022-10-31T10:30:02;97636.13;;;31.37;22.58
75013;BME280;63567;49.956;20.130;2022-10-31T10:32:31;97634.97;;;33.38;20.92
75013;BME280;63567;49.956;20.130;2022-10-31T10:35:19;97632.31;;;35.21;18.12
75013;BME280;63567;49.956;20.130;2022-10-31T10:37:46;97631.75;;;36.40;17.09
75013;BME280;63567;49.956;20.130;2022-10-31T10:40:20;97634.25;;;36.45;17.78
75013;BME280;63567;49.956;20.130;2022-10-31T10:52:06;97626.06;;;35.54;17.88
75013;BME280;63567;49.956;20.130;2022-10-31T10:54:49;97626.13;;;32.88;20.60
75013;BME280;63567;49.956;20.130;2022-10-31T10:59:44;97621.63;;;33.71;20.21
75013;BME280;63567;49.956;20.130;2022-10-31T11:02:25;97621.50;;;34.14;19.67
75013;BME280;63567;49.956;20.130;2022-10-31T11:04:53;97627.59;;;33.12;19.97
75013;BME280;63567;49.956;20.130;2022-10-31T11:07:19;97627.97;;;32.62;21.10
75013;BME280;63567;49.956;20.130;2022-10-31T11:09:44;97621.75;;;32.87;20.67
75013;BME280;63567;49.956;20.130;2022-10-31T11:12:30;97624.31;;;33.80;19.38
75013;BME280;63567;49.956;20.130;2022-10-31T11:14:59;97622.13;;;33.64;20.67
75013;BME280;63567;49.956;20.130;2022-10-31T11:17:33;97615.47;;;34.60;19.68
75013;BME280;63567;49.956;20.130;2022-10-31T11:22:48;97616.00;;;34.53;19.07
75013;BME280;63567;49.956;20.130;2022-10-31T11:25:25;97614.94;;;36.42;17.48
75013;BME280;63567;49.956;20.130;2022-10-31T11:28:02;97618.97;;;35.53;17.96
75013;BME280;63567;49.956;20.130;2022-10-31T11:30:28;97612.47;;;35.91;18.19
75013;BME280;63567;49.956;20.130;2022-10-31T11:32:53;97607.94;;;36.19;17.87
75013;BME280;63567;49.956;20.130;2022-10-31T11:35:21;97609.50;;;36.82;17.32
75013;BME280;63567;49.956;20.130;2022-10-31T11:37:49;97610.78;;;37.25;17.30
75013;BME280;63567;49.956;20.130;2022-10-31T11:40:18;97611.94;;;36.47;17.50
75013;BME280;63567;49.956;20.130;2022-10-31T11:42:45;97606.59;;;37.44;16.76
75013;BME280;63567;49.956;20.130;2022-10-31T11:45:27;97611.22;;;37.84;15.67
75013;BME280;63567;49.956;20.130;2022-10-31T11:47:54;97608.19;;;38.36;15.33
75013;BME280;63567;49.956;20.130;2022-10-31T11:50:27;97606.16;;;37.01;17.18
75013;BME280;63567;49.956;20.130;2022-10-31T11:52:53;97608.34;;;35.85;18.11
75013;BME280;63567;49.956;20.130;2022-10-31T11:55:37;97609.25;;;37.12;16.72
75013;BME280;63567;49.956;20.130;2022-10-31T11:58:03;97603.06;;;38.19;15.76
75013;BME280;63567;49.956;20.130;2022-10-31T12:00:32;97601.22;;;38.07;15.96
75013;BME280;63567;49.956;20.130;2022-10-31T12:05:58;97600.53;;;39.55;15.21
75013;BME280;63567;49.956;20.130;2022-10-31T12:08:29;97598.00;;;39.89;14.50
75013;BME280;63567;49.956;20.130;2022-10-31T12:16:29;97585.16;;;38.09;15.99
75013;BME280;63567;49.956;20.130;2022-10-31T12:19:17;97588.03;;;38.00;15.93
75013;BME280;63567;49.956;20.130;2022-10-31T12:22:20;97583.59;;;37.64;15.67
75013;BME280;63567;49.956;20.130;2022-10-31T12:30:53;97584.06;;;36.20;17.56
75013;BME280;63567;49.956;20.130;2022-10-31T12:41:09;97584.03;;;37.66;16.45
75013;BME280;63567;49.956;20.130;2022-10-31T12:44:05;97576.09;;;36.80;16.96
75013;BME280;63567;49.956;20.130;2022-10-31T12:46:44;97579.94;;;36.14;17.77
75013;BME280;63567;49.956;20.130;2022-10-31T12:49:42;97576.22;;;35.97;18.31
75013;BME280;63567;49.956;20.130;2022-10-31T12:52:25;97580.75;;;36.14;17.57
75013;BME280;63567;49.956;20.130;2022-10-31T12:55:10;97571.31;;;35.45;18.57
75013;BME280;63567;49.956;20.130;2022-10-31T12:57:42;97565.38;;;36.75;17.84
75013;BME280;63567;49.956;20.130;2022-10-31T13:00:15;97566.75;;;37.37;17.13
75013;BME280;63567;49.956;20.130;2022-10-31T13:03:02;97567.25;;;37.27;17.54
75013;BME280;63567;49.956;20.130;2022-10-31T13:05:37;97565.94;;;36.56;17.65
75013;BME280;63567;49.956;20.130;2022-10-31T13:08:28;97563.75;;;35.30;18.92
75013;BME280;63567;49.956;20.130;2022-10-31T13:13:33;97566.38;;;35.05;19.64
75013;BME280;63567;49.956;20.130;2022-10-31T13:16:04;97562.69;;;35.22;18.81
75013;BME280;63567;49.956;20.130;2022-10-31T13:18:39;97562.31;;;34.61;19.51
75013;BME280;63567;49.956;20.130;2022-10-31T13:21:12;97556.50;;;34.41;19.68
75013;BME280;63567;49.956;20.130;2022-10-31T13:23:43;97551.59;;;34.26;19.90
75013;BME280;63567;49.956;20.130;2022-10-31T13:26:12;97559.00;;;33.87;20.63
75013;BME280;63567;49.956;20.130;2022-10-31T13:29:11;97560.25;;;32.90;20.98
75013;BME280;63567;49.956;20.130;2022-10-31T13:31:40;97553.88;;;34.24;20.57
75013;BME280;63567;49.956;20.130;2022-10-31T13:34:16;97553.94;;;35.29;19.13
75013;BME280;63567;49.956;20.130;2022-10-31T13:39:33;97556.50;;;35.46;18.86
75013;BME280;63567;49.956;20.130;2022-10-31T13:44:36;97561.31;;;35.16;18.54
75013;BME280;63567;49.956;20.130;2022-10-31T13:47:40;97553.53;;;34.25;19.58
75013;BME280;63567;49.956;20.130;2022-10-31T13:50:30;97556.47;;;33.82;20.64
75013;BME280;63567;49.956;20.130;2022-10-31T13:55:44;97550.06;;;34.07;19.44
75013;BME280;63567;49.956;20.130;2022-10-31T13:58:22;97551.91;;;33.94;19.44
75013;BME280;63567;49.956;20.130;2022-10-31T14:03:30;97550.50;;;34.27;20.14
75013;BME280;63567;49.956;20.130;2022-10-31T14:05:56;97548.34;;;34.32;19.50
75013;BME280;63567;49.956;20.130;2022-10-31T14:08:23;97538.03;;;33.61;20.49
75013;BME280;63567;49.956;20.130;2022-10-31T14:10:51;97543.25;;;32.67;21.51
75013;BME280;63567;49.956;20.130;2022-10-31T14:13:41;97533.13;;;32.59;22.64
75013;BME280;63567;49.956;20.130;2022-10-31T14:16:20;97541.94;;;31.98;23.12
75013;BME280;63567;49.956;20.130;2022-10-31T14:18:51;97538.66;;;31.02;24.76
75013;BME280;63567;49.956;20.130;2022-10-31T14:23:51;97527.28;;;29.39;27.35
75013;BME280;63567;49.956;20.130;2022-10-31T14:29:19;97528.81;;;28.13;29.53
75013;BME280;63567;49.956;20.130;2022-10-31T14:32:01;97536.13;;;27.35;30.71
75013;BME280;63567;49.956;20.130;2022-10-31T14:34:37;97530.09;;;26.69;31.36
75013;BME280;63567;49.956;20.130;2022-10-31T14:37:32;97524.78;;;25.99;32.34
75013;BME280;63567;49.956;20.130;2022-10-31T14:51:42;97521.59;;;23.05;37.92
75013;BME280;63567;49.956;20.130;2022-10-31T14:54:14;97528.13;;;22.60;38.80
75013;BME280;63567;49.956;20.130;2022-10-31T14:56:49;97527.59;;;22.14;39.58
75013;BME280;63567;49.956;20.130;2022-10-31T14:59:19;97521.97;;;21.71;40.77
75013;BME280;63567;49.956;20.130;2022-10-31T15:02:14;97521.63;;;21.46;41.61
75013;BME280;63567;49.956;20.130;2022-10-31T15:04:44;97525.84;;;21.08;42.23
75013;BME280;63567;49.956;20.130;2022-10-31T15:07:17;97529.72;;;20.83;42.89
75013;BME280;63567;49.956;20.130;2022-10-31T15:09:44;97529.09;;;20.36;44.03
75013;BME280;63567;49.956;20.130;2022-10-31T15:12:32;97528.50;;;20.05;44.91
75013;BME280;63567;49.956;20.130;2022-10-31T15:15:10;97521.56;;;19.80;45.71
75013;BME280;63567;49.956;20.130;2022-10-31T15:17:43;97519.47;;;19.47;46.92
75013;BME280;63567;49.956;20.130;2022-10-31T15:20:11;97525.28;;;19.20;47.42
75013;BME280;63567;49.956;20.130;2022-10-31T15:22:37;97528.63;;;19.04;47.75
75013;BME280;63567;49.956;20.130;2022-10-31T15:25:03;97518.84;;;18.86;48.19
75013;BME280;63567;49.956;20.130;2022-10-31T15:27:28;97524.66;;;18.83;47.70